createdAt,value
2023-01-20T00:00:21.438Z,11.47
2023-01-20T00:01:31.235Z,11.48
2023-01-20T00:03:57.636Z,11.62
2023-01-20T00:05:08.681Z,11.51
2023-01-20T00:06:18.377Z,11.55
2023-01-20T00:07:28.083Z,11.56
2023-01-20T00:08:38.321Z,11.53
2023-01-20T00:09:47.300Z,11.53
2023-01-20T00:10:56.828Z,11.57
2023-01-20T00:12:06.488Z,11.58
2023-01-20T00:13:16.195Z,11.58
2023-01-20T00:14:25.055Z,11.59
2023-01-20T00:16:49.467Z,11.69
2023-01-20T00:17:58.539Z,11.57
2023-01-20T00:19:07.954Z,11.56
2023-01-20T00:20:17.885Z,11.53
2023-01-20T00:21:27.442Z,11.52
2023-01-20T00:22:38.373Z,11.48
2023-01-20T00:23:48.298Z,11.43
2023-01-20T00:24:56.809Z,11.44
2023-01-20T00:26:10.124Z,11.41
2023-01-20T00:27:20.549Z,11.43
2023-01-20T00:28:30.621Z,11.41
2023-01-20T00:29:40.351Z,11.41
2023-01-20T00:30:50.243Z,11.40
2023-01-20T00:31:59.241Z,11.41
2023-01-20T00:33:08.878Z,11.40
2023-01-20T00:34:17.993Z,11.40
2023-01-20T00:35:26.495Z,11.38
2023-01-20T00:36:36.750Z,11.36
2023-01-20T00:37:46.510Z,11.36
2023-01-20T00:38:56.152Z,11.32
2023-01-20T00:40:06.864Z,11.25
2023-01-20T00:41:16.493Z,11.25
2023-01-20T00:42:25.544Z,11.24
2023-01-20T00:43:36.801Z,11.25
2023-01-20T00:44:45.935Z,11.25
2023-01-20T00:45:56.903Z,11.25
2023-01-20T00:47:07.111Z,11.26
2023-01-20T00:48:16.471Z,11.25
2023-01-20T00:49:26.507Z,11.26
2023-01-20T00:50:36.003Z,11.25
2023-01-20T00:51:44.531Z,11.26
2023-01-20T00:52:53.462Z,11.27
2023-01-20T00:54:02.101Z,11.24
2023-01-20T00:55:10.691Z,11.26
2023-01-20T00:56:20.410Z,11.24
2023-01-20T00:57:29.527Z,11.29
2023-01-20T00:58:38.071Z,11.29
2023-01-20T00:59:47.772Z,11.27
2023-01-20T01:00:59.040Z,11.30
2023-01-20T01:03:29.975Z,11.37
2023-01-20T01:04:39.041Z,11.26
2023-01-20T01:05:48.614Z,11.29
2023-01-20T01:06:57.814Z,11.30
2023-01-20T01:08:06.929Z,11.28
2023-01-20T01:09:16.693Z,11.30
2023-01-20T01:10:25.306Z,11.32
2023-01-20T01:11:34.309Z,11.32
2023-01-20T01:12:43.866Z,11.32
2023-01-20T01:13:57.511Z,11.30
2023-01-20T01:15:07.324Z,11.32
2023-01-20T01:16:17.507Z,11.30
2023-01-20T01:17:27.300Z,11.32
2023-01-20T01:18:35.878Z,11.33
2023-01-20T01:19:44.907Z,11.33
2023-01-20T01:20:54.619Z,11.34
2023-01-20T01:22:04.410Z,11.35
2023-01-20T01:23:13.701Z,11.35
2023-01-20T01:24:23.795Z,11.35
2023-01-20T01:25:33.789Z,11.36
2023-01-20T01:26:43.412Z,11.35
2023-01-20T01:27:53.044Z,11.34
2023-01-20T01:29:02.172Z,11.35
2023-01-20T01:30:12.799Z,11.34
2023-01-20T01:31:21.979Z,11.29
2023-01-20T01:32:30.924Z,11.26
2023-01-20T01:33:39.845Z,11.22
2023-01-20T01:34:49.818Z,11.21
2023-01-20T01:36:01.910Z,11.17
2023-01-20T01:37:11.472Z,11.12
2023-01-20T01:38:21.003Z,11.11
2023-01-20T01:39:31.812Z,11.10
2023-01-20T01:40:41.141Z,11.06
2023-01-20T01:41:50.647Z,11.05
2023-01-20T01:42:59.301Z,11.03
2023-01-20T01:44:11.986Z,11.00
2023-01-20T01:45:25.183Z,10.98
2023-01-20T01:46:36.058Z,10.95
2023-01-20T01:47:48.370Z,10.95
2023-01-20T01:49:01.494Z,10.95
2023-01-20T01:50:14.245Z,10.97
2023-01-20T01:51:26.865Z,10.99
2023-01-20T01:52:35.803Z,10.98
2023-01-20T01:53:48.635Z,10.97
2023-01-20T01:54:58.839Z,10.96
2023-01-20T01:56:10.448Z,10.96
2023-01-20T01:57:19.743Z,10.95
2023-01-20T01:58:32.032Z,10.95
2023-01-20T01:59:41.242Z,10.92
2023-01-20T02:00:51.343Z,10.92
2023-01-20T02:02:00.788Z,10.91
2023-01-20T02:03:11.521Z,10.89
2023-01-20T02:04:24.818Z,10.91
2023-01-20T02:05:37.122Z,10.93
2023-01-20T02:08:07.713Z,11.07
2023-01-20T02:09:16.857Z,10.91
2023-01-20T02:10:26.090Z,10.91
2023-01-20T02:11:43.773Z,10.90
2023-01-20T02:12:54.039Z,10.89
2023-01-20T02:14:03.924Z,10.85
2023-01-20T02:15:14.371Z,10.84
2023-01-20T02:17:53.641Z,10.89
2023-01-20T02:20:57.526Z,10.81
2023-01-20T02:22:25.947Z,10.66
2023-01-20T02:23:55.650Z,10.60
2023-01-20T02:25:23.594Z,10.61
2023-01-20T02:26:54.411Z,10.58
2023-01-20T02:28:25.548Z,10.54
2023-01-20T02:29:54.679Z,10.50
2023-01-20T02:32:48.869Z,10.52
2023-01-20T02:35:35.803Z,10.53
2023-01-20T02:38:25.444Z,10.53
2023-01-20T02:39:38.645Z,10.43
2023-01-20T02:40:55.548Z,10.43
2023-01-20T02:42:17.630Z,10.41
2023-01-20T02:43:39.803Z,10.42
2023-01-20T02:44:52.075Z,10.41
2023-01-20T02:46:11.355Z,10.39
2023-01-20T02:47:40.241Z,10.38
2023-01-20T02:49:12.598Z,10.38
2023-01-20T02:50:38.000Z,10.39
2023-01-20T02:51:56.728Z,10.40
2023-01-20T02:53:07.816Z,10.40
2023-01-20T02:54:23.067Z,10.42
2023-01-20T02:57:07.356Z,10.53
2023-01-20T02:59:46.816Z,10.55
2023-01-20T03:02:22.378Z,10.58
2023-01-20T03:03:35.151Z,10.48
2023-01-20T03:06:06.995Z,10.60
2023-01-20T03:07:18.670Z,10.49
2023-01-20T03:08:31.968Z,10.49
2023-01-20T03:11:09.439Z,10.58
2023-01-20T03:13:57.635Z,10.59
2023-01-20T03:15:08.401Z,10.49
2023-01-20T03:16:23.352Z,10.48
2023-01-20T03:17:34.804Z,10.46
2023-01-20T03:18:45.207Z,10.49
2023-01-20T03:19:55.070Z,10.47
2023-01-20T03:21:07.469Z,10.45
2023-01-20T03:22:17.287Z,10.45
2023-01-20T03:23:29.812Z,10.43
2023-01-20T03:24:41.985Z,10.42
2023-01-20T03:25:51.843Z,10.41
2023-01-20T03:27:02.182Z,10.42
2023-01-20T03:28:12.062Z,10.38
2023-01-20T03:29:21.656Z,10.38
2023-01-20T03:30:30.854Z,10.37
2023-01-20T03:33:04.039Z,10.51
2023-01-20T03:35:32.725Z,10.50
2023-01-20T03:36:44.519Z,10.39
2023-01-20T03:37:53.763Z,10.38
2023-01-20T03:39:04.516Z,10.36
2023-01-20T03:40:16.372Z,10.32
2023-01-20T03:41:38.220Z,10.29
2023-01-20T03:43:03.825Z,10.28
2023-01-20T03:44:32.723Z,10.24
2023-01-20T03:45:46.283Z,10.23
2023-01-20T03:47:20.964Z,10.22
2023-01-20T03:50:34.892Z,10.35
2023-01-20T03:57:00.101Z,10.44
2023-01-20T03:58:14.438Z,10.33
2023-01-20T03:59:25.089Z,10.33
2023-01-20T04:00:37.330Z,10.31
2023-01-20T04:01:48.672Z,10.32
2023-01-20T04:03:00.439Z,10.33
2023-01-20T04:04:15.118Z,10.34
2023-01-20T04:05:25.471Z,10.34
2023-01-20T04:06:36.367Z,10.34
2023-01-20T04:09:05.515Z,10.48
2023-01-20T04:10:17.401Z,10.38
2023-01-20T04:11:27.649Z,10.37
2023-01-20T04:12:37.441Z,10.35
2023-01-20T04:13:47.229Z,10.36
2023-01-20T04:14:56.360Z,10.33
2023-01-20T04:16:11.864Z,10.32
2023-01-20T04:17:21.649Z,10.27
2023-01-20T04:18:32.383Z,10.24
2023-01-20T04:19:41.811Z,10.21
2023-01-20T04:22:27.335Z,10.27
2023-01-20T04:23:45.556Z,10.14
2023-01-20T04:24:58.961Z,10.12
2023-01-20T04:26:08.551Z,10.09
2023-01-20T04:27:17.155Z,10.05
2023-01-20T04:28:27.148Z,10.02
2023-01-20T04:29:35.898Z,9.98
2023-01-20T04:30:45.118Z,9.94
2023-01-20T04:32:02.857Z,9.90
2023-01-20T04:33:12.655Z,9.85
2023-01-20T04:34:23.199Z,9.79
2023-01-20T04:35:32.500Z,9.73
2023-01-20T04:36:42.304Z,9.69
2023-01-20T04:37:51.027Z,9.62
2023-01-20T04:39:00.295Z,9.56
2023-01-20T04:40:11.818Z,9.51
2023-01-20T04:41:20.957Z,9.46
2023-01-20T04:42:29.547Z,9.43
2023-01-20T04:43:38.234Z,9.39
2023-01-20T04:44:47.707Z,9.34
2023-01-20T04:45:58.616Z,9.31
2023-01-20T04:47:07.918Z,9.27
2023-01-20T04:48:17.745Z,9.23
2023-01-20T04:49:26.285Z,9.20
2023-01-20T04:50:40.838Z,9.15
2023-01-20T04:51:50.844Z,9.11
2023-01-20T04:53:00.942Z,9.09
2023-01-20T04:54:11.514Z,9.06
2023-01-20T04:55:22.300Z,8.97
2023-01-20T04:56:30.925Z,8.93
2023-01-20T04:57:39.997Z,8.93
2023-01-20T04:58:49.524Z,8.89
2023-01-20T04:59:58.886Z,8.87
2023-01-20T05:01:09.549Z,8.86
2023-01-20T05:02:19.130Z,8.84
2023-01-20T05:04:43.161Z,8.93
2023-01-20T05:07:11.572Z,8.92
2023-01-20T05:08:24.689Z,8.83
2023-01-20T05:09:34.478Z,8.83
2023-01-20T05:10:43.672Z,8.83
2023-01-20T05:11:52.218Z,8.79
2023-01-20T05:13:02.375Z,8.76
2023-01-20T05:14:12.351Z,8.78
2023-01-20T05:15:21.944Z,8.73
2023-01-20T05:16:32.570Z,8.67
2023-01-20T05:17:41.681Z,8.65
2023-01-20T05:18:50.885Z,8.63
2023-01-20T05:20:00.131Z,8.60
2023-01-20T05:21:09.275Z,8.51
2023-01-20T05:22:18.164Z,8.49
2023-01-20T05:23:28.802Z,8.46
2023-01-20T05:24:38.536Z,8.46
2023-01-20T05:25:52.588Z,8.42
2023-01-20T05:27:01.994Z,8.39
2023-01-20T05:28:11.603Z,8.38
2023-01-20T05:29:21.189Z,8.38
2023-01-20T05:30:30.740Z,8.38
2023-01-20T05:31:42.413Z,8.39
2023-01-20T05:32:51.748Z,8.42
2023-01-20T05:34:01.367Z,8.46
2023-01-20T05:35:10.875Z,8.50
2023-01-20T05:36:19.893Z,8.52
2023-01-20T05:37:28.920Z,8.55
2023-01-20T05:38:39.563Z,8.60
2023-01-20T05:39:49.071Z,8.61
2023-01-20T05:41:06.955Z,8.62
2023-01-20T05:42:16.682Z,8.62
2023-01-20T05:43:27.127Z,8.59
2023-01-20T05:44:36.743Z,8.57
2023-01-20T05:45:46.393Z,8.53
2023-01-20T05:48:11.118Z,8.56
2023-01-20T05:49:20.183Z,8.43
2023-01-20T05:51:44.339Z,8.49
2023-01-20T05:52:55.216Z,8.33
2023-01-20T05:54:04.782Z,8.34
2023-01-20T05:55:14.294Z,8.32
2023-01-20T05:56:24.627Z,8.35
2023-01-20T05:57:34.469Z,8.36
2023-01-20T05:58:43.605Z,8.40
2023-01-20T05:59:56.566Z,8.44
2023-01-20T06:01:07.248Z,8.45
2023-01-20T06:02:18.184Z,8.40
2023-01-20T06:04:41.782Z,8.46
2023-01-20T06:05:51.405Z,8.33
2023-01-20T06:07:00.335Z,8.29
2023-01-20T06:08:09.973Z,8.29
2023-01-20T06:09:19.389Z,8.27
2023-01-20T06:10:29.328Z,8.27
2023-01-20T06:11:38.951Z,8.26
2023-01-20T06:14:12.335Z,8.35
2023-01-20T06:15:23.637Z,8.25
2023-01-20T06:17:48.188Z,8.40
2023-01-20T06:20:13.462Z,8.42
2023-01-20T06:21:23.549Z,8.34
2023-01-20T06:22:33.389Z,8.35
2023-01-20T06:24:59.427Z,8.47
2023-01-20T06:27:28.887Z,8.51
2023-01-20T06:29:53.499Z,8.51
2023-01-20T06:32:23.268Z,8.50
2023-01-20T06:33:33.489Z,8.40
2023-01-20T06:34:42.141Z,8.40
2023-01-20T06:37:12.901Z,8.47
2023-01-20T06:38:26.132Z,8.32
2023-01-20T06:39:35.520Z,8.28
2023-01-20T06:42:00.122Z,8.34
2023-01-20T06:44:24.872Z,8.29
2023-01-20T06:46:48.711Z,8.30
2023-01-20T06:47:58.321Z,8.23
2023-01-20T06:49:07.320Z,8.26
2023-01-20T06:50:18.025Z,8.28
2023-01-20T06:51:30.370Z,8.30
2023-01-20T06:52:39.823Z,8.35
2023-01-20T06:53:50.674Z,8.37
2023-01-20T06:56:22.695Z,8.56
2023-01-20T06:57:31.337Z,8.51
2023-01-20T06:59:55.546Z,8.76
2023-01-20T07:02:35.734Z,8.77
2023-01-20T07:05:00.635Z,8.78
2023-01-20T07:06:29.295Z,8.69
2023-01-20T07:08:53.969Z,8.82
2023-01-20T07:10:04.030Z,8.71
2023-01-20T07:11:13.201Z,8.70
2023-01-20T07:13:38.640Z,8.84
2023-01-20T07:16:03.080Z,8.88
2023-01-20T07:17:12.770Z,8.79
2023-01-20T07:19:36.305Z,9.01
2023-01-20T07:20:45.003Z,8.91
2023-01-20T07:21:54.139Z,8.91
2023-01-20T07:23:03.196Z,8.91
2023-01-20T07:25:29.205Z,9.00
2023-01-20T07:26:38.263Z,8.90
2023-01-20T07:27:47.315Z,8.91
2023-01-20T07:28:58.555Z,8.89
2023-01-20T07:31:28.584Z,8.96
2023-01-20T07:32:38.061Z,8.84
2023-01-20T07:35:03.163Z,8.97
2023-01-20T07:36:14.597Z,8.89
2023-01-20T07:37:24.433Z,8.87
2023-01-20T07:38:34.854Z,8.91
2023-01-20T07:39:44.429Z,8.90
2023-01-20T07:40:56.249Z,8.86
2023-01-20T07:42:06.072Z,8.89
2023-01-20T07:44:30.196Z,9.03
2023-01-20T07:45:39.089Z,8.94
2023-01-20T07:46:48.966Z,8.95
2023-01-20T07:47:58.081Z,9.00
2023-01-20T07:49:08.064Z,9.05
2023-01-20T07:51:32.584Z,9.23
2023-01-20T07:52:41.957Z,9.17
2023-01-20T07:53:51.349Z,9.17
2023-01-20T07:55:00.469Z,9.17
2023-01-20T07:57:30.724Z,9.34
2023-01-20T07:58:39.797Z,9.26
2023-01-20T07:59:48.609Z,9.29
2023-01-20T08:00:58.830Z,9.30
2023-01-20T08:03:27.326Z,9.44
2023-01-20T08:05:51.158Z,9.50
2023-01-20T08:07:00.524Z,9.44
2023-01-20T08:08:09.072Z,9.47
2023-01-20T08:10:35.019Z,9.63
2023-01-20T08:11:43.504Z,9.54
2023-01-20T08:12:53.922Z,9.57
2023-01-20T08:14:02.603Z,9.61
2023-01-20T08:15:11.985Z,9.61
2023-01-20T08:17:37.217Z,9.81
2023-01-20T08:20:02.680Z,9.88
2023-01-20T08:22:40.340Z,9.96
2023-01-20T08:23:50.802Z,9.89
2023-01-20T08:24:59.952Z,9.94
2023-01-20T08:27:24.853Z,10.15
2023-01-20T08:29:55.363Z,10.16
2023-01-20T08:32:23.481Z,10.20
2023-01-20T08:33:32.050Z,10.10
2023-01-20T08:34:43.093Z,10.14
2023-01-20T08:35:51.698Z,10.15
2023-01-20T08:38:16.362Z,10.35
2023-01-20T08:39:25.860Z,10.28
2023-01-20T08:40:36.248Z,10.29
2023-01-20T08:41:46.330Z,10.32
2023-01-20T08:42:55.984Z,10.35
2023-01-20T08:45:17.782Z,10.40
2023-01-20T08:46:27.446Z,10.45
2023-01-20T08:47:38.334Z,10.49
2023-01-20T08:48:48.868Z,10.53
2023-01-20T08:49:57.827Z,10.55
2023-01-20T08:52:28.069Z,10.68
2023-01-20T08:53:37.337Z,10.60
2023-01-20T08:54:46.524Z,10.59
2023-01-20T08:55:57.073Z,10.60
2023-01-20T08:57:05.693Z,10.63
2023-01-20T08:59:29.153Z,10.75
2023-01-20T09:00:38.143Z,10.63
2023-01-20T09:01:47.255Z,10.67
2023-01-20T09:04:13.353Z,10.75
2023-01-20T09:05:21.969Z,10.67
2023-01-20T09:06:33.255Z,10.71
2023-01-20T09:07:42.345Z,10.73
2023-01-20T09:08:51.375Z,10.75
2023-01-20T09:10:00.473Z,10.77
2023-01-20T09:11:12.155Z,10.75
2023-01-20T09:12:21.622Z,10.78
2023-01-20T09:14:47.295Z,10.90
2023-01-20T09:17:10.904Z,10.91
2023-01-20T09:18:20.229Z,10.83
2023-01-20T09:20:51.842Z,10.95
2023-01-20T09:22:01.037Z,10.87
2023-01-20T09:23:10.122Z,10.87
2023-01-20T09:25:34.786Z,10.95
2023-01-20T09:26:44.801Z,10.83
2023-01-20T09:27:54.412Z,10.83
2023-01-20T09:29:08.541Z,10.83
2023-01-20T09:30:19.023Z,10.85
2023-01-20T09:31:28.580Z,10.88
2023-01-20T09:32:37.616Z,10.94
2023-01-20T09:33:47.179Z,10.96
2023-01-20T09:34:56.694Z,10.99
2023-01-20T09:36:08.749Z,11.02
2023-01-20T09:37:36.421Z,11.01
2023-01-20T09:39:03.944Z,11.02
2023-01-20T09:40:38.421Z,11.02
2023-01-20T12:12:12.069Z,11.41
2023-01-20T12:15:10.693Z,11.55
2023-01-20T12:16:21.965Z,11.49
2023-01-20T12:19:02.293Z,11.98
2023-01-20T12:22:57.802Z,12.44
2023-01-20T12:24:23.936Z,12.46
2023-01-20T12:25:58.233Z,12.53
2023-01-20T12:29:02.722Z,12.90
2023-01-20T12:30:27.961Z,12.86
2023-01-20T12:31:37.134Z,13.01
2023-01-20T12:34:14.682Z,13.25
2023-01-20T12:37:10.178Z,13.28
2023-01-20T12:39:39.264Z,13.39
2023-01-20T12:42:26.971Z,13.38
2023-01-20T12:45:45.635Z,13.37
2023-01-20T12:47:32.981Z,13.23
2023-01-20T12:49:01.553Z,13.08
2023-01-20T12:53:30.372Z,12.68
2023-01-20T12:56:54.221Z,12.45
2023-01-20T12:58:33.450Z,12.28
2023-01-20T13:01:25.374Z,12.21
2023-01-20T13:02:51.061Z,12.05
2023-01-20T13:04:38.700Z,12.01
2023-01-20T13:07:21.331Z,11.99
2023-01-20T13:10:03.744Z,11.92
2023-01-20T13:11:28.194Z,11.84
2023-01-20T13:12:52.540Z,11.89
2023-01-20T13:14:08.017Z,11.99
2023-01-20T13:15:23.482Z,12.09
2023-01-20T13:18:23.075Z,12.44
2023-01-20T13:20:55.986Z,12.64
2023-01-20T13:23:37.798Z,12.73
2023-01-20T13:24:58.981Z,12.62
2023-01-20T13:27:31.945Z,12.61
2023-01-20T13:28:54.128Z,12.44
2023-01-20T13:31:40.060Z,12.35
2023-01-20T13:32:49.246Z,12.19
2023-01-20T13:34:24.434Z,12.13
2023-01-20T13:37:09.053Z,12.06
2023-01-20T13:38:28.261Z,11.88
2023-01-20T13:39:46.794Z,11.79
2023-01-20T13:42:33.427Z,11.80
2023-01-20T13:43:46.804Z,11.65
2023-01-20T13:46:39.713Z,11.65
2023-01-20T13:47:57.714Z,11.49
2023-01-20T13:49:22.452Z,11.44
2023-01-20T13:50:34.908Z,11.40
2023-01-20T13:51:45.486Z,11.35
2023-01-20T13:53:05.016Z,11.36
2023-01-20T13:55:47.780Z,11.65
2023-01-20T13:57:26.536Z,11.65
2023-01-20T13:59:52.484Z,11.94
2023-01-20T14:01:06.095Z,11.91
2023-01-20T14:03:38.701Z,12.16
2023-01-20T14:04:49.482Z,12.04
2023-01-20T14:06:11.308Z,11.98
2023-01-20T14:07:30.857Z,11.93
2023-01-20T14:10:01.507Z,11.92
2023-01-20T14:11:18.446Z,11.79
2023-01-20T14:12:28.489Z,11.73
2023-01-20T14:13:38.561Z,11.67
2023-01-20T14:14:49.390Z,11.62
2023-01-20T14:15:59.472Z,11.55
2023-01-20T14:18:27.858Z,11.56
2023-01-20T14:19:37.394Z,11.44
2023-01-20T14:22:26.547Z,11.38
2023-01-20T14:25:00.384Z,11.35
2023-01-20T14:26:12.996Z,11.23
2023-01-20T14:28:50.376Z,11.24
2023-01-20T14:31:38.566Z,11.17
2023-01-20T14:32:48.031Z,11.01
2023-01-20T14:34:00.142Z,10.99
2023-01-20T14:36:47.629Z,11.01
2023-01-20T14:37:57.155Z,10.91
2023-01-20T14:39:08.785Z,10.98
2023-01-20T14:40:24.660Z,11.04
2023-01-20T14:43:07.671Z,11.27
2023-01-20T14:45:37.591Z,11.32
2023-01-20T14:48:05.098Z,11.17
2023-01-20T14:49:19.879Z,11.01
2023-01-20T14:50:29.324Z,10.97
2023-01-20T14:51:38.467Z,10.92
2023-01-20T14:52:48.155Z,10.86
2023-01-20T14:56:03.733Z,10.88
2023-01-20T14:57:23.086Z,10.73
2023-01-20T15:00:06.303Z,10.59
2023-01-20T15:01:26.646Z,10.45
2023-01-20T15:02:37.517Z,10.44
2023-01-20T15:03:46.165Z,10.43
2023-01-20T15:06:20.777Z,10.71
2023-01-20T15:07:29.380Z,10.72
2023-01-20T15:10:06.851Z,10.99
2023-01-20T15:11:20.682Z,10.98
2023-01-20T15:12:43.189Z,11.03
2023-01-20T15:14:01.499Z,10.95
2023-01-20T15:16:41.217Z,10.96
2023-01-20T15:19:31.459Z,10.80
2023-01-20T15:22:21.738Z,10.64
2023-01-20T15:23:37.948Z,10.47
2023-01-20T15:24:49.230Z,10.40
2023-01-20T15:27:31.802Z,10.39
2023-01-20T15:28:44.442Z,10.22
2023-01-20T15:31:28.491Z,10.23
2023-01-20T15:32:37.148Z,10.11
2023-01-20T15:33:46.361Z,10.01
2023-01-20T15:36:28.928Z,10.10
2023-01-20T15:37:38.837Z,9.97
2023-01-20T15:38:48.439Z,9.92
2023-01-20T15:41:13.750Z,9.99
2023-01-20T15:42:23.762Z,9.84
2023-01-20T15:43:32.805Z,9.82
2023-01-20T15:44:41.736Z,9.70
2023-01-20T15:45:51.293Z,9.74
2023-01-20T15:47:00.347Z,9.82
2023-01-20T15:48:16.398Z,9.92
2023-01-20T15:50:41.777Z,10.14
2023-01-20T15:51:51.149Z,10.16
2023-01-20T15:53:00.824Z,10.26
2023-01-20T15:54:10.963Z,10.37
2023-01-20T15:55:21.697Z,10.49
2023-01-20T15:56:30.604Z,10.53
2023-01-20T15:57:39.706Z,10.48
2023-01-20T16:00:06.979Z,10.45
2023-01-20T16:02:37.457Z,10.33
2023-01-20T16:03:46.306Z,10.21
2023-01-20T16:04:56.415Z,10.12
2023-01-20T16:06:14.263Z,10.01
2023-01-20T16:07:22.901Z,9.96
2023-01-20T16:09:50.001Z,9.91
2023-01-20T16:10:59.321Z,9.76
2023-01-20T16:13:35.692Z,9.74
2023-01-20T16:14:45.328Z,9.59
2023-01-20T16:17:20.552Z,9.63
2023-01-20T16:18:30.805Z,9.52
2023-01-20T16:19:41.394Z,9.47
2023-01-20T16:20:49.889Z,9.44
2023-01-20T16:23:13.971Z,9.46
2023-01-20T16:25:38.512Z,9.42
2023-01-20T16:26:49.078Z,9.26
2023-01-20T16:27:59.207Z,9.23
2023-01-20T16:29:09.262Z,9.19
2023-01-20T16:30:20.991Z,9.21
2023-01-20T16:31:32.064Z,9.19
2023-01-20T16:32:41.644Z,9.17
2023-01-20T16:33:53.233Z,9.12
2023-01-20T16:36:19.143Z,9.15
2023-01-20T16:37:28.161Z,9.07
2023-01-20T16:38:36.975Z,9.05
2023-01-20T16:39:46.529Z,9.03
2023-01-20T16:40:59.314Z,8.99
2023-01-20T16:42:14.871Z,8.97
2023-01-20T16:43:24.072Z,8.98
2023-01-20T16:44:33.296Z,8.96
2023-01-20T16:45:42.305Z,8.97
2023-01-20T16:46:51.642Z,8.97
2023-01-20T16:48:01.168Z,8.95
2023-01-20T16:49:10.756Z,8.96
2023-01-20T16:50:20.437Z,8.93
2023-01-20T16:52:46.699Z,9.09
2023-01-20T16:53:57.000Z,8.96
2023-01-20T16:56:30.176Z,9.08
2023-01-20T16:59:16.705Z,9.07
2023-01-20T17:00:26.222Z,8.94
2023-01-20T17:01:35.887Z,8.94
2023-01-20T17:04:09.827Z,9.02
2023-01-20T17:05:22.462Z,8.93
2023-01-20T17:06:34.788Z,8.92
2023-01-20T17:09:01.221Z,9.01
2023-01-20T17:11:33.006Z,9.01
2023-01-20T17:12:41.792Z,8.94
2023-01-20T17:13:52.453Z,8.92
2023-01-20T17:16:22.959Z,9.00
2023-01-20T17:17:33.214Z,8.86
2023-01-20T17:18:46.535Z,8.88
2023-01-20T17:19:55.638Z,8.82
2023-01-20T17:22:21.411Z,8.86
2023-01-20T17:23:30.227Z,8.73
2023-01-20T17:24:39.515Z,8.68
2023-01-20T17:25:49.570Z,8.66
2023-01-20T17:26:59.139Z,8.65
2023-01-20T17:28:09.152Z,8.64
2023-01-20T17:30:37.772Z,8.73
2023-01-20T17:33:02.310Z,8.64
2023-01-20T17:34:11.390Z,8.52
2023-01-20T17:35:20.403Z,8.50
2023-01-20T17:37:46.847Z,8.61
2023-01-20T17:38:55.844Z,8.49
2023-01-20T17:40:06.264Z,8.48
2023-01-20T17:41:16.358Z,8.47
2023-01-20T17:42:26.019Z,8.49
2023-01-20T17:43:39.501Z,8.49
2023-01-20T17:44:48.164Z,8.49
2023-01-20T17:47:12.855Z,8.63
2023-01-20T17:48:22.124Z,8.55
2023-01-20T20:39:20.875Z,4.66
2023-01-20T20:41:46.182Z,4.85
2023-01-20T20:42:58.817Z,4.80
2023-01-20T20:44:09.232Z,4.92
2023-01-20T20:45:19.909Z,5.04
2023-01-20T20:46:29.340Z,5.16
2023-01-20T20:47:38.242Z,5.34
2023-01-20T20:50:10.524Z,5.76
2023-01-20T20:51:19.378Z,5.75
2023-01-20T20:52:28.177Z,5.87
2023-01-20T20:53:38.211Z,5.92
2023-01-20T20:54:46.930Z,6.04
2023-01-20T20:57:18.721Z,6.25
2023-01-20T20:58:28.425Z,6.18
2023-01-20T20:59:47.271Z,6.24
2023-01-20T21:00:51.145Z,6.30
2023-01-20T21:02:00.678Z,6.27
2023-01-20T21:03:10.973Z,6.34
2023-01-20T21:04:21.456Z,6.23
2023-01-20T21:05:31.187Z,6.27
2023-01-20T21:06:39.719Z,6.17
2023-01-20T21:07:49.857Z,6.08
2023-01-20T21:08:59.976Z,6.00
2023-01-20T21:11:28.289Z,5.94
2023-01-20T21:12:37.878Z,5.77
2023-01-20T21:13:48.686Z,5.66
2023-01-20T21:14:57.164Z,5.58
2023-01-20T21:16:13.412Z,5.49
2023-01-20T21:17:21.947Z,5.41
2023-01-20T21:18:31.516Z,5.32
2023-01-20T21:20:58.540Z,5.42
2023-01-20T21:22:08.757Z,5.29
2023-01-20T21:24:32.172Z,5.62
2023-01-20T21:25:41.983Z,5.57
2023-01-20T21:26:50.945Z,5.64
2023-01-20T21:27:59.615Z,5.71
2023-01-20T21:29:11.656Z,5.80
2023-01-20T21:31:36.842Z,6.11
2023-01-20T21:34:01.205Z,6.22
2023-01-20T21:35:11.293Z,6.18
2023-01-20T21:36:21.044Z,6.13
2023-01-20T21:38:46.469Z,6.05
2023-01-20T21:41:11.927Z,5.79
2023-01-20T21:42:22.440Z,5.59
2023-01-20T21:43:52.202Z,5.54
2023-01-20T21:45:00.768Z,5.49
2023-01-20T21:47:25.025Z,5.45
2023-01-20T21:50:28.388Z,5.38
2023-01-20T21:53:13.811Z,5.33
2023-01-20T21:54:24.834Z,5.22
2023-01-20T21:55:37.231Z,5.24
2023-01-20T21:56:46.353Z,5.21
2023-01-20T21:57:56.493Z,5.06
2023-01-20T21:59:05.791Z,5.23
2023-01-20T22:00:17.278Z,5.38
2023-01-20T22:01:28.056Z,5.55
2023-01-20T22:02:37.090Z,5.66
2023-01-20T22:05:01.266Z,5.70
2023-01-20T22:06:10.877Z,5.72
2023-01-20T22:08:34.995Z,5.78
2023-01-20T22:11:02.579Z,5.70
2023-01-20T22:12:12.432Z,5.52
2023-01-20T22:13:21.438Z,5.38
2023-01-20T22:15:48.715Z,5.32
2023-01-20T22:16:57.924Z,5.15
2023-01-20T22:18:06.509Z,5.08
2023-01-20T22:20:31.563Z,4.88
2023-01-20T22:21:40.835Z,4.79
2023-01-20T22:24:07.561Z,4.94
2023-01-20T22:25:16.504Z,4.84
2023-01-20T22:26:25.452Z,4.90
2023-01-20T22:28:49.227Z,5.18
2023-01-20T22:31:24.313Z,5.34
2023-01-20T22:33:29.195Z,5.32
2023-01-20T22:36:47.231Z,5.62
2023-01-20T22:39:23.604Z,5.75
2023-01-20T22:41:47.668Z,5.78
2023-01-20T22:42:56.639Z,5.62
2023-01-20T22:44:06.733Z,5.52
2023-01-20T22:45:15.749Z,5.38
2023-01-20T22:46:27.800Z,5.32
2023-01-20T22:47:36.272Z,5.26
2023-01-20T22:50:01.459Z,5.24
2023-01-20T22:51:13.925Z,5.10
2023-01-20T22:52:23.456Z,5.08
2023-01-20T22:53:34.171Z,5.03
2023-01-20T22:54:43.108Z,5.01
2023-01-20T22:56:01.009Z,4.93
2023-01-20T22:58:19.254Z,4.88
2023-01-20T22:59:27.715Z,4.74
2023-01-20T23:00:36.495Z,4.61
2023-01-20T23:03:00.812Z,4.66
2023-01-20T23:04:10.744Z,4.55
2023-01-20T23:05:19.523Z,4.64
2023-01-20T23:06:32.032Z,4.64
2023-01-20T23:07:42.388Z,4.75
2023-01-20T23:08:51.269Z,4.83
2023-01-20T23:10:01.863Z,4.97
2023-01-20T23:11:14.670Z,5.06
2023-01-20T23:12:24.202Z,5.12
2023-01-20T23:15:00.857Z,5.33
2023-01-20T23:17:35.208Z,5.22
2023-01-20T23:18:43.990Z,5.07
2023-01-20T23:19:53.933Z,4.97
2023-01-20T23:22:20.181Z,4.90
2023-01-20T23:24:43.816Z,4.82
2023-01-20T23:26:04.620Z,4.69
2023-01-20T23:28:28.248Z,4.67
2023-01-20T23:32:17.256Z,4.60
2023-01-20T23:34:41.248Z,4.47
2023-01-20T23:35:50.890Z,4.37
2023-01-20T23:38:14.623Z,4.66
2023-01-20T23:39:23.756Z,4.66
2023-01-20T23:40:34.193Z,4.73
2023-01-20T23:42:59.898Z,4.96
2023-01-20T23:44:11.915Z,4.84
2023-01-20T23:45:20.437Z,4.89
2023-01-20T23:46:30.263Z,4.86
2023-01-20T23:47:39.892Z,4.77
2023-01-20T23:50:06.338Z,4.70
2023-01-20T23:51:17.380Z,4.57
2023-01-20T23:52:27.997Z,4.51
2023-01-20T23:53:40.129Z,4.37
2023-01-20T23:54:49.247Z,4.27
2023-01-20T23:56:02.626Z,4.26
2023-01-20T23:58:26.724Z,4.31
